Terminal Aerodrome Forecast
Issued by NWS Albuquerque, NM

Home | Current Version | Previous Version | Text Only | Print | Product List | Glossary On
Versions: 1 2 3 4 5 6 7 8 9 10 11 12 13 14
000
FTUS45 KABQ 240520
TAFABQ
TAF
KABQ 240520Z 2406/2506 26018G28KT P6SM SCT060 BKN100
     FM241400 31022G32KT P6SM SKC
     FM242300 34022G32KT P6SM SKC
     FM250200 35011KT P6SM SKC=

USA.gov is the U.S. government's official web portal to all federal, state and local government web resources and services.